Athens, Texas
Current Conditions -  °F | °C
As of 12:35 PM on Friday 31 Oct 2014 (Local Time) from KF44 Reporting Station
Clear Clear  
Wind Chill: 64°   Ceiling: Unl
Heat Index: 64°   Visibility: 10mi
Dew Point: 41°   Wind: 13mph
Humidity: 42%   Direction: 10°N
Pressure: 30.27"   Gusts: 23mph
Location:  32.2°N, 95.85°W
Report Text: KF44 311735Z AUTO 01011G20KT 10SM CLR 18/05 A3027 RMK AO2
Loading
Personal Weather Stations






























Interactive Weather Map
Tropical Storm Tracking
New forecast layout! Learn more

10-Day Weather Forecast

Advertisements
Track Severe Weather on mobile